Time;durP1;ratioP1;P1;durP2;ratioP2;P2;SDS_P1;SDS_P2;PMS_P1;PMS_P2;Temp;Humidity;BMP_temperature;BMP_pressure;BME280_temperature;BME280_humidity;BME280_pressure;Samples;Min_cycle;Max_cycle;Signal;HPM_P1;HPM_P2
2021/05/02 00:00:04;;;;;;;16.17;11.09;;;;;;;17.51;66.26;98805.61;317746;108;2882035;-72
2021/05/02 00:01:12;;;;;;;14.62;11.39;;;;;;;17.50;66.24;98801.26;310096;108;2217114;-72
2021/05/02 00:02:18;;;;;;;15.93;12.09;;;;;;;17.48;66.32;98797.97;366818;108;1962022;-72
2021/05/02 00:03:25;;;;;;;16.61;11.84;;;;;;;17.47;66.47;98796.34;365414;108;1962025;-72
2021/05/02 00:04:31;;;;;;;17.13;12.07;;;;;;;17.45;66.45;98791.14;370052;110;1962934;-73
2021/05/02 00:05:37;;;;;;;15.76;11.21;;;;;;;17.42;66.65;98790.88;350471;108;2847887;-71
2021/05/02 00:06:43;;;;;;;16.68;12.60;;;;;;;17.40;66.59;98788.41;369817;108;1964985;-72
2021/05/02 00:07:50;;;;;;;16.17;12.13;;;;;;;17.40;66.63;98787.59;369729;110;1961970;-72
2021/05/02 00:08:55;;;;;;;16.23;11.82;;;;;;;17.40;66.78;98785.68;373154;108;1962908;-72
2021/05/02 00:10:01;;;;;;;15.85;12.36;;;;;;;17.40;66.83;98782.95;370308;108;1961075;-72
2021/05/02 00:11:07;;;;;;;17.03;12.35;;;;;;;17.40;66.68;98790.33;369897;110;1962952;-73
2021/05/02 00:12:14;;;;;;;17.90;11.27;;;;;;;17.38;66.75;98787.86;350477;107;2848990;-72
2021/05/02 00:13:20;;;;;;;17.05;12.19;;;;;;;17.39;66.68;98781.33;369556;108;1961978;-72
2021/05/02 00:14:26;;;;;;;17.08;11.35;;;;;;;17.38;66.73;98787.05;369194;110;1964079;-71
2021/05/02 00:15:32;;;;;;;18.44;12.51;;;;;;;17.35;66.86;98774.75;370302;110;1961935;-72
2021/05/02 00:16:39;;;;;;;16.75;12.51;;;;;;;17.35;66.90;98774.75;367396;108;1961988;-72
2021/05/02 00:17:47;;;;;;;17.23;12.16;;;;;;;17.33;66.88;98774.20;331726;108;2651893;-72
2021/05/02 00:18:56;;;;;;;17.73;11.99;;;;;;;17.32;66.93;98767.93;299467;108;2335921;-73
2021/05/02 00:20:01;;;;;;;17.12;12.11;;;;;;;17.32;66.96;98767.93;367557;108;1962027;-71
2021/05/02 00:21:10;;;;;;;16.21;12.62;;;;;;;17.31;67.19;98766.30;367174;107;1963999;-72
2021/05/02 00:22:19;;;;;;;17.49;12.78;;;;;;;17.30;66.95;98764.64;360362;108;2885047;-73
2021/05/02 00:23:24;;;;;;;15.33;11.98;;;;;;;17.31;66.87;98762.76;366563;108;1961861;-72
2021/05/02 00:24:30;;;;;;;19.22;12.14;;;;;;;17.32;66.80;98761.66;367029;108;1961986;-72
2021/05/02 00:25:35;;;;;;;16.97;12.04;;;;;;;17.34;66.62;98763.02;368539;108;1963944;-71
2021/05/02 00:26:42;;;;;;;16.84;12.32;;;;;;;17.31;66.62;98758.11;324265;110;2731002;-73
2021/05/02 00:27:48;;;;;;;17.09;12.88;;;;;;;17.30;66.80;98753.73;329621;108;2049973;-72
2021/05/02 00:28:54;;;;;;;16.11;12.07;;;;;;;17.31;66.62;98760.03;370919;108;1960918;-72
2021/05/02 00:30:00;;;;;;;15.78;12.59;;;;;;;17.30;66.61;98753.73;363571;110;1962931;-73
2021/05/02 00:31:09;;;;;;;18.13;12.24;;;;;;;17.31;66.68;98762.76;369507;110;1961918;-71
2021/05/02 00:32:14;;;;;;;15.78;11.70;;;;;;;17.39;66.29;98756.75;368545;108;1961896;-73
2021/05/02 00:33:20;;;;;;;17.50;12.14;;;;;;;17.38;66.25;98754.28;364490;108;1960906;-72
2021/05/02 00:34:27;;;;;;;18.51;12.03;;;;;;;17.26;66.56;98755.38;365643;108;1963983;-72
2021/05/02 00:35:34;;;;;;;17.18;12.39;;;;;;;17.22;66.90;98753.45;367443;108;1961931;-72
2021/05/02 00:36:40;;;;;;;16.76;11.75;;;;;;;17.21;66.84;98754.56;367893;108;1962903;-72
2021/05/02 00:37:46;;;;;;;16.51;12.55;;;;;;;17.23;66.75;98757.84;366552;109;1961960;-71
2021/05/02 00:38:52;;;;;;;16.88;12.23;;;;;;;17.22;66.97;98757.00;365084;107;1963997;-72
2021/05/02 00:39:57;;;;;;;16.73;13.10;;;;;;;17.22;66.90;98754.27;366125;107;1961931;-71
2021/05/02 00:41:06;;;;;;;16.68;12.87;;;;;;;17.23;66.94;98753.20;364837;109;1961976;-73
2021/05/02 00:42:20;;;;;;;16.79;12.62;;;;;;;17.23;66.75;98753.20;365034;107;1961950;-71
2021/05/02 00:43:38;;;;;;;15.03;12.14;;;;;;;17.26;66.56;98749.92;342634;107;1963052;-71
2021/05/02 00:44:49;;;;;;;15.60;12.07;;;;;;;17.27;66.75;98753.46;364877;111;1962999;-72
2021/05/02 00:46:08;;;;;;;17.78;12.48;;;;;;;17.26;66.71;98746.38;364652;109;1961971;-72
2021/05/02 00:47:22;;;;;;;18.50;12.60;;;;;;;17.26;66.77;98746.38;367755;107;1960817;-72
2021/05/02 00:48:35;;;;;;;18.65;12.34;;;;;;;17.34;66.67;98743.91;365048;111;1960812;-73
2021/05/02 00:50:05;;;;;;;16.96;12.88;;;;;;;17.35;66.55;98742.00;360273;109;2937851;-74
2021/05/02 00:51:15;;;;;;;15.85;12.07;;;;;;;17.16;67.40;98740.91;363931;111;1960755;-73
2021/05/02 00:52:37;;;;;;;17.53;12.76;;;;;;;17.13;67.43;98734.08;365748;109;1960718;-72
2021/05/02 00:53:46;;;;;;;15.04;11.30;;;;;;;17.11;67.53;98737.07;314561;112;2713784;-72
2021/05/02 00:54:57;;;;;;;19.02;11.69;;;;;;;17.13;67.46;98736.81;301989;115;2884885;-72
2021/05/02 00:56:22;;;;;;;15.62;11.77;;;;;;;17.03;67.49;98737.61;319513;109;2704753;-71
2021/05/02 00:57:32;;;;;;;18.54;11.87;;;;;;;17.07;67.35;98732.45;331782;107;2597723;-72
2021/05/02 00:58:45;;;;;;;14.46;11.16;;;;;;;17.09;67.31;98739.27;366239;107;1963012;-71
2021/05/02 01:00:02;;;;;;;14.66;10.76;;;;;;;17.09;67.31;98732.97;368300;109;1962957;-73
2021/05/02 01:01:09;;;;;;;14.32;10.19;;;;;;;17.08;67.24;98732.16;369556;107;1961668;-72
2021/05/02 01:02:16;;;;;;;15.66;9.86;;;;;;;17.07;67.28;98730.53;339114;109;2556739;-72
2021/05/02 01:03:25;;;;;;;14.77;10.57;;;;;;;17.06;67.25;98733.52;366755;109;1962980;-72
2021/05/02 01:04:32;;;;;;;15.21;10.64;;;;;;;17.05;67.27;98731.89;327446;109;2071943;-73
2021/05/02 01:05:41;;;;;;;14.09;9.24;;;;;;;17.03;67.33;98729.42;364534;111;1961906;-72
2021/05/02 01:06:49;;;;;;;13.24;9.71;;;;;;;17.03;67.19;98723.97;367655;109;1960679;-73
2021/05/02 01:07:56;;;;;;;11.56;8.55;;;;;;;17.06;67.00;98728.87;370645;109;1961983;-72
2021/05/02 01:09:03;;;;;;;13.55;9.31;;;;;;;17.04;67.09;98730.23;364192;111;1961940;-72
2021/05/02 01:10:15;;;;;;;13.67;10.42;;;;;;;17.02;67.11;98724.26;367540;107;1961993;-72
2021/05/02 01:11:21;;;;;;;10.75;8.62;;;;;;;17.00;67.03;98729.97;364899;107;1961993;-72
2021/05/02 01:12:27;;;;;;;12.79;9.37;;;;;;;16.95;67.33;98721.78;358088;107;2925080;-72
2021/05/02 01:13:35;;;;;;;14.02;9.32;;;;;;;16.94;67.32;98730.25;366525;107;1961982;-72
2021/05/02 01:14:45;;;;;;;13.16;8.88;;;;;;;16.89;67.54;98729.14;368431;109;1961957;-72
2021/05/02 01:15:54;;;;;;;12.51;8.29;;;;;;;16.88;67.44;98726.67;365382;109;1961960;-72
2021/05/02 01:16:59;;;;;;;13.28;8.70;;;;;;;16.82;67.58;98734.02;370257;107;1961996;-72
2021/05/02 01:18:07;;;;;;;14.49;9.12;;;;;;;16.80;67.62;98732.66;371393;107;1962007;-72
2021/05/02 01:19:13;;;;;;;12.89;8.82;;;;;;;16.75;67.91;98725.27;310051;107;2381010;-72
2021/05/02 01:20:19;;;;;;;13.76;9.31;;;;;;;16.73;67.92;98727.44;364912;109;1964925;-72
2021/05/02 01:21:34;;;;;;;13.84;8.63;;;;;;;16.70;68.05;98730.71;367584;107;1960687;-72
2021/05/02 01:22:43;;;;;;;14.12;8.97;;;;;;;16.66;68.14;98733.14;345302;107;1961888;-71
2021/05/02 01:23:48;;;;;;;12.62;9.41;;;;;;;16.63;68.44;98728.23;369377;109;1962030;-72
2021/05/02 01:24:54;;;;;;;12.84;8.56;;;;;;;16.58;68.41;98733.66;330029;111;2609999;-72
2021/05/02 01:26:00;;;;;;;13.66;9.09;;;;;;;16.56;68.54;98726.84;336535;109;1963903;-72
2021/05/02 01:27:06;;;;;;;13.31;8.71;;;;;;;16.52;68.71;98723.84;368609;107;1962050;-73
2021/05/02 01:28:13;;;;;;;12.58;8.85;;;;;;;16.49;69.02;98727.92;369481;107;1964002;-72
2021/05/02 01:29:18;;;;;;;14.09;8.44;;;;;;;16.46;69.17;98720.28;368184;107;1961962;-71
2021/05/02 01:30:26;;;;;;;11.78;8.57;;;;;;;16.46;69.19;98722.19;368659;109;1962004;-72
2021/05/02 01:31:32;;;;;;;12.60;8.51;;;;;;;16.43;69.15;98718.09;365550;108;1961940;-71
2021/05/02 01:32:38;;;;;;;13.03;8.52;;;;;;;16.40;69.48;98718.60;370033;107;1963977;-72
2021/05/02 01:33:45;;;;;;;11.82;8.64;;;;;;;16.38;69.36;98714.50;365484;109;1961946;-71
2021/05/02 01:34:51;;;;;;;11.53;8.45;;;;;;;16.36;69.43;98716.70;325180;109;2037069;-71
2021/05/02 01:35:57;;;;;;;12.47;7.78;;;;;;;16.36;69.43;98714.79;353950;108;1962021;-72
2021/05/02 01:37:02;;;;;;;12.63;7.96;;;;;;;16.36;69.77;98720.24;354290;109;1962872;-73
2021/05/02 01:38:09;;;;;;;12.02;7.91;;;;;;;16.36;69.51;98724.88;365087;107;1961958;-72
2021/05/02 01:39:14;;;;;;;12.31;8.49;;;;;;;16.35;69.44;98718.58;366964;107;1961992;-72
2021/05/02 01:40:21;;;;;;;11.79;7.96;;;;;;;16.34;69.65;98727.05;371228;108;1960896;-72
2021/05/02 01:41:26;;;;;;;12.03;7.75;;;;;;;16.32;69.63;98721.03;370383;109;1961978;-72
2021/05/02 01:42:32;;;;;;;12.77;7.89;;;;;;;16.33;69.62;98722.69;367074;107;1962982;-73
2021/05/02 01:43:37;;;;;;;12.91;8.48;;;;;;;16.32;69.64;98723.76;369839;109;1962956;-73
2021/05/02 01:44:42;;;;;;;11.46;6.92;;;;;;;16.30;69.65;98724.05;367049;109;1963031;-71
2021/05/02 01:45:48;;;;;;;12.10;7.59;;;;;;;16.30;69.70;98726.77;352651;107;2866922;-72
2021/05/02 01:46:56;;;;;;;12.46;8.09;;;;;;;16.29;69.92;98722.38;354400;107;1962938;-70
2021/05/02 01:48:05;;;;;;;12.01;7.88;;;;;;;16.28;70.22;98719.94;375174;107;1965397;-71
2021/05/02 01:49:12;;;;;;;16.33;7.46;;;;;;;16.26;69.94;98721.01;367775;107;1961914;-71
2021/05/02 01:50:20;;;;;;;9.10;5.84;;;;;;;16.25;70.08;98716.66;329488;107;2000862;-72
2021/05/02 01:51:27;;;;;;;11.78;6.33;;;;;;;16.28;70.36;98714.49;354453;109;1961983;-72
2021/05/02 01:52:44;;;;;;;8.38;4.98;;;;;;;16.30;70.29;98712.30;367652;110;1961950;-72
2021/05/02 01:53:51;;;;;;;7.91;4.69;;;;;;;16.34;70.31;98706.05;368095;107;1961947;-71
2021/05/02 01:54:58;;;;;;;9.64;5.13;;;;;;;16.42;70.23;98705.53;357380;108;2815951;-72
2021/05/02 01:56:04;;;;;;;7.55;4.58;;;;;;;16.51;70.08;98705.83;369083;107;1961988;-72
2021/05/02 01:57:13;;;;;;;10.48;5.40;;;;;;;16.61;69.75;98707.77;365007;107;1963977;-73
2021/05/02 01:58:20;;;;;;;9.42;5.52;;;;;;;16.66;69.43;98705.05;366606;107;1963896;-71
2021/05/02 01:59:27;;;;;;;8.91;4.96;;;;;;;16.75;69.65;98702.61;366140;107;1961996;-71
2021/05/02 02:00:42;;;;;;;7.79;4.62;;;;;;;16.79;69.22;98707.30;365764;107;1961912;-72
2021/05/02 02:01:47;;;;;;;8.21;5.14;;;;;;;16.82;68.97;98697.75;369577;107;1962946;-72
2021/05/02 02:02:54;;;;;;;8.86;5.61;;;;;;;16.82;68.70;98695.84;367594;107;1961963;-72
2021/05/02 02:04:03;;;;;;;10.48;6.07;;;;;;;16.79;68.54;98696.39;327571;107;2751014;-72
2021/05/02 02:05:13;;;;;;;8.85;5.55;;;;;;;16.77;68.46;98689.53;370088;105;1962940;-72
2021/05/02 02:06:20;;;;;;;8.88;5.97;;;;;;;16.74;68.40;98693.62;358244;110;1960926;-71
2021/05/02 02:07:26;;;;;;;11.61;6.32;;;;;;;16.67;68.75;98691.16;310485;113;2853973;-72
2021/05/02 02:08:32;;;;;;;10.24;6.44;;;;;;;16.64;68.70;98697.13;307599;116;2105851;-73
2021/05/02 02:09:39;;;;;;;11.42;6.40;;;;;;;16.61;68.62;98694.95;353034;113;1962035;-73
2021/05/02 02:10:49;;;;;;;9.82;6.73;;;;;;;16.57;68.86;98695.78;356171;112;1962007;-72
2021/05/02 02:11:54;;;;;;;9.41;6.16;;;;;;;16.53;68.88;98695.48;356515;113;1961979;-72
2021/05/02 02:13:00;;;;;;;10.22;6.18;;;;;;;16.53;68.76;98703.66;355419;114;1961887;-72
2021/05/02 02:14:06;;;;;;;9.97;6.76;;;;;;;16.49;69.21;98694.39;357172;114;1961932;-72
2021/05/02 02:15:14;;;;;;;10.53;6.55;;;;;;;16.47;69.05;98699.28;339476;114;2856999;-72
2021/05/02 02:16:22;;;;;;;9.63;6.55;;;;;;;16.43;69.11;98699.02;357331;113;1963015;-71
2021/05/02 02:17:28;;;;;;;10.84;6.83;;;;;;;16.43;69.15;98700.89;317244;113;2681959;-71
2021/05/02 02:18:33;;;;;;;9.54;6.83;;;;;;;16.40;69.32;98706.88;315756;113;2054900;-71
2021/05/02 02:19:39;;;;;;;10.56;7.11;;;;;;;16.38;69.27;98699.00;349712;113;1961746;-73
2021/05/02 02:20:48;;;;;;;10.74;6.84;;;;;;;16.38;69.34;98698.16;357264;113;1961966;-72
2021/05/02 02:21:57;;;;;;;10.87;6.97;;;;;;;16.38;69.33;98704.45;326253;113;2555978;-72
2021/05/02 02:23:08;;;;;;;9.56;6.44;;;;;;;16.40;69.26;98702.25;356831;112;1962065;-72
2021/05/02 02:24:12;;;;;;;10.12;6.63;;;;;;;16.43;69.09;98692.72;355806;112;1962030;-71
2021/05/02 02:25:18;;;;;;;9.18;6.20;;;;;;;16.39;69.11;98695.17;355220;114;1963973;-73
2021/05/02 02:26:34;;;;;;;10.81;6.78;;;;;;;16.35;69.45;98691.33;330099;114;2445012;-71
2021/05/02 02:27:41;;;;;;;11.16;6.88;;;;;;;16.33;69.55;98700.89;298730;114;2212935;-72
2021/05/02 02:28:47;;;;;;;11.32;6.59;;;;;;;16.33;69.58;98693.52;356428;114;1961926;-71
2021/05/02 02:29:59;;;;;;;11.02;6.73;;;;;;;16.33;69.70;98693.52;356381;114;1964928;-72
2021/05/02 02:31:07;;;;;;;12.18;6.92;;;;;;;16.31;69.67;98684.79;355467;114;1962066;-73
2021/05/02 02:32:14;;;;;;;9.92;6.07;;;;;;;16.31;70.17;98689.42;354204;114;1971064;-73
2021/05/02 02:33:22;;;;;;;9.11;5.41;;;;;;;16.29;69.82;98694.31;357021;114;1962042;-72
2021/05/02 02:34:29;;;;;;;11.04;5.58;;;;;;;16.27;69.97;98686.39;357154;114;1962017;-71
2021/05/02 02:35:41;;;;;;;8.54;5.64;;;;;;;16.30;70.08;98685.05;354132;112;1961949;-72
2021/05/02 02:36:46;;;;;;;8.77;4.56;;;;;;;16.32;70.10;98680.16;349011;112;2937981;-72
2021/05/02 02:37:56;;;;;;;9.83;4.85;;;;;;;16.35;70.02;98690.52;351804;115;1961952;-72
2021/05/02 02:39:02;;;;;;;7.78;4.24;;;;;;;16.36;70.03;98687.53;350205;116;1962963;-73
2021/05/02 02:40:09;;;;;;;9.25;4.06;;;;;;;16.40;70.20;98685.08;357646;113;1960927;-72
2021/05/02 02:41:18;;;;;;;7.49;3.95;;;;;;;16.45;70.23;98690.55;327970;111;2847929;-73
2021/05/02 02:42:24;;;;;;;8.43;4.29;;;;;;;16.52;69.94;98685.67;357693;113;1962061;-72
2021/05/02 02:43:31;;;;;;;7.16;4.53;;;;;;;16.59;69.66;98677.22;354816;113;1962026;-71
2021/05/02 02:44:39;;;;;;;7.48;4.15;;;;;;;16.51;69.52;98650.48;345461;113;1962004;-73
2021/05/02 02:45:46;;;;;;;8.69;5.18;;;;;;;16.70;69.38;98684.36;357160;111;1962059;-71
2021/05/02 02:46:56;;;;;;;8.23;5.23;;;;;;;16.71;69.29;98672.34;289610;113;2339958;-72
2021/05/02 02:48:05;;;;;;;7.98;4.81;;;;;;;16.69;69.16;98669.88;315170;114;2784931;-73
2021/05/02 02:49:13;;;;;;;8.16;4.87;;;;;;;16.66;69.12;98658.70;355848;113;1961857;-71
2021/05/02 02:50:21;;;;;;;7.80;4.84;;;;;;;16.61;69.16;98662.23;357790;113;1962015;-72
2021/05/02 02:51:28;;;;;;;8.69;5.71;;;;;;;16.57;69.22;98668.52;356802;112;1961885;-71
2021/05/02 02:52:37;;;;;;;9.05;5.09;;;;;;;16.57;69.06;98661.15;340501;113;1963026;-71
2021/05/02 02:53:46;;;;;;;8.57;5.20;;;;;;;16.51;69.45;98655.94;347771;113;2860006;-72
2021/05/02 02:55:04;;;;;;;8.48;5.22;;;;;;;16.45;69.48;98653.20;360207;113;1961987;-73
2021/05/02 02:56:16;;;;;;;9.76;5.49;;;;;;;16.43;69.36;98660.85;355880;111;1961960;-73
2021/05/02 02:57:25;;;;;;;8.96;5.24;;;;;;;16.39;69.49;98658.92;352773;115;1963036;-73
2021/05/02 02:58:37;;;;;;;9.86;6.02;;;;;;;16.36;69.55;98663.00;351514;115;1962076;-73
2021/05/02 02:59:42;;;;;;;9.95;5.74;;;;;;;16.35;69.39;98661.34;351429;115;1962055;-73
2021/05/02 03:00:50;;;;;;;9.20;6.21;;;;;;;16.33;69.48;98668.19;353446;115;1961980;-73
2021/05/02 03:01:56;;;;;;;11.21;6.66;;;;;;;16.43;69.26;98662.73;347852;115;1961910;-74
2021/05/02 03:03:14;;;;;;;9.28;6.28;;;;;;;16.48;69.15;98668.20;353038;115;1965246;-73
2021/05/02 03:04:23;;;;;;;10.16;6.16;;;;;;;16.34;69.53;98669.81;306041;113;2873950;-73
2021/05/02 03:05:29;;;;;;;10.54;6.27;;;;;;;16.33;69.46;98676.36;352683;115;1962028;-73
2021/05/02 03:06:35;;;;;;;10.15;5.83;;;;;;;16.31;69.41;98676.61;362086;111;1961958;-73
2021/05/02 03:07:42;;;;;;;11.86;6.16;;;;;;;16.43;69.26;98679.94;316557;111;2827003;-73
2021/05/02 03:08:49;;;;;;;9.36;5.68;;;;;;;16.40;69.12;98680.44;364812;111;1963057;-73
2021/05/02 03:09:55;;;;;;;10.48;6.12;;;;;;;16.42;69.16;98689.17;364968;111;1961925;-72
2021/05/02 03:11:02;;;;;;;9.04;5.24;;;;;;;16.42;69.31;98683.73;368725;109;1960925;-74
2021/05/02 03:12:10;;;;;;;8.99;5.41;;;;;;;16.34;69.15;98686.98;357812;109;1961906;-73
2021/05/02 03:13:16;;;;;;;9.86;6.04;;;;;;;16.28;69.67;98687.24;360985;111;1961954;-75
2021/05/02 03:14:23;;;;;;;9.34;5.89;;;;;;;16.26;69.91;98684.77;326060;111;2663959;-73
2021/05/02 03:15:29;;;;;;;10.11;5.28;;;;;;;16.26;69.94;98691.03;350555;111;1963991;-73
2021/05/02 03:16:39;;;;;;;12.69;5.87;;;;;;;16.36;69.73;98687.53;364562;111;1961901;-73
2021/05/02 03:17:48;;;;;;;8.74;5.61;;;;;;;16.39;69.60;98684.27;358704;113;1962052;-72
2021/05/02 03:19:20;;;;;;;8.30;5.71;;;;;;;16.43;69.30;98679.94;332557;111;1964005;-72
2021/05/02 03:20:30;;;;;;;11.14;5.91;;;;;;;16.48;69.22;98677.22;364361;111;1963967;-72
2021/05/02 03:21:54;;;;;;;10.67;6.24;;;;;;;16.48;69.17;98670.92;364220;111;1962929;-73
2021/05/02 03:23:09;;;;;;;12.74;6.77;;;;;;;16.48;69.27;98676.38;346931;111;1961000;-73
2021/05/02 03:24:18;;;;;;;10.30;6.53;;;;;;;16.53;68.98;98672.85;338988;114;1962022;-73
2021/05/02 03:25:30;;;;;;;10.41;6.27;;;;;;;16.53;69.14;98670.94;331796;111;2489949;-74
2021/05/02 03:26:38;;;;;;;12.86;6.62;;;;;;;16.55;68.97;98676.14;353974;114;1964966;-72
2021/05/02 03:27:46;;;;;;;10.00;6.43;;;;;;;16.54;69.10;98672.59;356710;112;1962096;-72
2021/05/02 03:29:00;;;;;;;12.88;8.17;;;;;;;16.52;69.35;98674.77;360574;113;1963980;-72
2021/05/02 03:30:07;;;;;;;13.56;9.33;;;;;;;16.42;69.45;98672.83;356490;112;1961963;-72
2021/05/02 03:31:15;;;;;;;12.43;8.11;;;;;;;16.45;69.34;98676.92;362861;111;1964037;-72
2021/05/02 03:32:24;;;;;;;12.87;8.06;;;;;;;16.39;69.71;98680.73;333798;113;1961973;-72
2021/05/02 03:33:33;;;;;;;12.51;7.09;;;;;;;16.40;69.56;98676.91;360968;113;1962015;-72
2021/05/02 03:34:41;;;;;;;10.58;6.86;;;;;;;16.41;69.61;98678.56;360896;111;1960618;-72
2021/05/02 03:35:49;;;;;;;9.58;6.03;;;;;;;16.43;69.55;98679.94;312657;111;2118914;-72
2021/05/02 03:36:59;;;;;;;10.20;6.38;;;;;;;16.44;69.56;98669.84;353862;113;1962929;-73
2021/05/02 03:38:30;;;;;;;11.74;5.87;;;;;;;16.46;69.60;98686.75;360860;113;1962055;-73
2021/05/02 03:39:39;;;;;;;8.52;5.18;;;;;;;16.47;69.54;98680.20;356466;114;1962034;-73
2021/05/02 03:40:46;;;;;;;9.24;5.41;;;;;;;16.50;69.45;98685.11;353838;114;1961989;-73
2021/05/02 03:41:51;;;;;;;8.89;5.62;;;;;;;16.51;69.39;98683.20;355626;111;2935952;-72
2021/05/02 03:42:58;;;;;;;10.16;5.29;;;;;;;16.53;69.29;98689.21;350556;111;2938023;-71
2021/05/02 03:44:04;;;;;;;10.39;5.28;;;;;;;16.53;69.27;98689.21;363202;111;1962098;-72
2021/05/02 03:45:10;;;;;;;18.04;5.43;;;;;;;16.55;69.26;98693.31;364460;109;1961924;-73
2021/05/02 03:46:24;;;;;;;9.71;4.87;;;;;;;16.58;69.20;98690.04;364341;109;1964929;-73
2021/05/02 03:47:29;;;;;;;9.99;5.49;;;;;;;16.58;69.22;98694.68;359633;111;1961949;-73
2021/05/02 03:48:35;;;;;;;10.46;5.36;;;;;;;16.60;69.28;98692.51;364368;111;1961959;-73
2021/05/02 03:49:40;;;;;;;8.96;5.34;;;;;;;16.62;69.18;98698.52;357989;113;1961996;-73
2021/05/02 03:50:46;;;;;;;10.92;5.59;;;;;;;16.64;69.10;98699.05;363129;109;1961969;-72
2021/05/02 03:51:51;;;;;;;9.96;5.80;;;;;;;16.66;69.02;98700.41;364148;111;1961898;-72
2021/05/02 03:52:57;;;;;;;10.63;5.88;;;;;;;16.70;69.01;98697.98;363298;111;1962942;-72
2021/05/02 03:54:05;;;;;;;10.72;5.80;;;;;;;16.73;68.85;98694.72;363909;111;1961961;-72
2021/05/02 03:55:10;;;;;;;8.91;5.90;;;;;;;16.77;68.81;98694.98;339239;111;1961923;-72
2021/05/02 03:56:40;;;;;;;9.66;5.64;;;;;;;16.79;68.75;98699.11;363559;111;1963966;-72
2021/05/02 03:57:45;;;;;;;8.79;5.16;;;;;;;16.85;68.58;98694.48;327355;111;1993992;-71
2021/05/02 03:58:50;;;;;;;9.76;5.33;;;;;;;16.90;68.40;98687.12;328360;111;1999909;-73
2021/05/02 03:59:56;;;;;;;8.62;5.21;;;;;;;16.99;68.31;98687.42;317117;111;2111057;-74
2021/05/02 04:01:01;;;;;;;8.87;5.22;;;;;;;17.00;67.98;98685.50;343573;109;1964039;-73
2021/05/02 04:02:07;;;;;;;10.81;6.11;;;;;;;16.99;68.05;98675.66;343430;109;1961867;-72
2021/05/02 04:03:17;;;;;;;9.62;5.89;;;;;;;17.02;67.87;98680.60;362355;111;1962022;-72
2021/05/02 04:04:28;;;;;;;10.14;5.66;;;;;;;17.12;67.63;98684.16;363499;111;1962026;-72
2021/05/02 04:05:33;;;;;;;8.96;5.40;;;;;;;17.04;67.79;98675.67;356184;113;1962025;-72
2021/05/02 04:06:39;;;;;;;9.64;5.18;;;;;;;17.05;67.75;98675.41;360493;111;1961888;-72
2021/05/02 04:07:45;;;;;;;11.21;5.37;;;;;;;17.08;67.66;98679.50;362201;112;1960954;-73
2021/05/02 04:08:50;;;;;;;8.34;5.65;;;;;;;17.10;67.65;98671.88;361883;112;1961898;-71
2021/05/02 04:09:57;;;;;;;12.35;5.65;;;;;;;17.10;67.65;98671.88;362709;110;1963981;-72
2021/05/02 04:11:03;;;;;;;8.83;5.41;;;;;;;17.12;67.67;98672.39;354053;110;2867797;-72
2021/05/02 04:12:09;;;;;;;8.92;5.23;;;;;;;17.14;67.65;98671.03;325442;112;2013013;-73
2021/05/02 04:13:15;;;;;;;8.92;5.33;;;;;;;17.17;67.71;98674.31;361586;110;1962989;-72
2021/05/02 04:14:20;;;;;;;10.07;5.83;;;;;;;17.21;67.41;98667.23;361784;112;1963011;-72
2021/05/02 04:15:26;;;;;;;9.75;4.98;;;;;;;17.20;67.34;98669.14;356574;113;1961958;-73
2021/05/02 04:16:33;;;;;;;8.43;5.44;;;;;;;17.34;67.04;98670.21;356800;114;1961987;-72
2021/05/02 04:17:39;;;;;;;10.12;5.12;;;;;;;17.44;66.62;98660.36;315863;112;2885917;-72
2021/05/02 04:18:45;;;;;;;8.80;5.37;;;;;;;17.33;66.95;98663.12;339002;112;1964005;-72
2021/05/02 04:19:52;;;;;;;9.83;5.56;;;;;;;17.32;67.04;98666.93;335463;111;1961796;-73
2021/05/02 04:20:58;;;;;;;8.26;5.22;;;;;;;17.33;67.10;98663.12;357490;112;1964102;-73
2021/05/02 04:22:04;;;;;;;9.61;4.76;;;;;;;17.34;66.99;98658.48;350804;116;1962048;-73
2021/05/02 04:23:10;;;;;;;10.21;5.16;;;;;;;17.38;66.82;98662.28;317440;114;2723111;-72
2021/05/02 04:24:16;;;;;;;8.92;5.49;;;;;;;17.39;66.74;98665.86;322661;113;2003858;-74
2021/05/02 04:25:22;;;;;;;10.97;5.19;;;;;;;17.42;66.69;98665.30;357428;112;1960961;-73
2021/05/02 04:26:28;;;;;;;9.65;5.10;;;;;;;17.44;66.55;98672.13;356516;111;1962925;-73
2021/05/02 04:27:33;;;;;;;9.08;5.30;;;;;;;17.45;66.47;98665.55;356601;113;1963978;-72
2021/05/02 04:28:39;;;;;;;8.80;5.25;;;;;;;17.46;66.45;98674.56;357815;112;1961991;-72
2021/05/02 04:29:47;;;;;;;9.79;5.22;;;;;;;17.48;66.42;98667.73;324406;114;2422019;-72
2021/05/02 04:30:52;;;;;;;8.69;5.07;;;;;;;17.50;66.43;98662.82;351828;114;1962926;-72
2021/05/02 04:31:58;;;;;;;8.56;4.68;;;;;;;17.51;66.27;98669.09;347372;114;1965008;-73
2021/05/02 04:33:04;;;;;;;11.11;5.18;;;;;;;17.50;66.04;98665.55;356352;114;1962109;-73
2021/05/02 04:34:09;;;;;;;9.47;4.89;;;;;;;17.51;66.07;98658.98;351241;114;1963996;-73
2021/05/02 04:35:14;;;;;;;10.53;5.10;;;;;;;17.52;66.01;98665.28;360467;111;1962005;-73
2021/05/02 04:36:24;;;;;;;10.18;5.83;;;;;;;17.54;65.92;98649.42;347363;112;2957059;-72
2021/05/02 04:37:30;;;;;;;9.22;4.97;;;;;;;17.53;65.81;98651.34;357778;114;1962004;-72
2021/05/02 04:38:35;;;;;;;9.18;5.36;;;;;;;17.70;65.40;98651.05;351679;114;1961901;-73
2021/05/02 04:39:41;;;;;;;8.69;4.82;;;;;;;17.84;64.90;98648.57;355315;112;1960817;-73
2021/05/02 04:40:46;;;;;;;10.97;4.90;;;;;;;17.91;64.70;98646.34;357125;112;1961866;-73
2021/05/02 04:41:51;;;;;;;9.17;5.03;;;;;;;17.97;64.58;98645.24;356864;114;1963973;-73
2021/05/02 04:42:57;;;;;;;9.76;4.92;;;;;;;18.01;64.44;98637.29;357433;112;1961968;-73
2021/05/02 04:44:02;;;;;;;10.49;5.04;;;;;;;18.00;64.53;98643.87;357544;114;1960952;-73
2021/05/02 04:45:09;;;;;;;10.27;5.26;;;;;;;18.04;64.43;98644.11;357688;111;1962986;-73
2021/05/02 04:46:15;;;;;;;9.08;5.06;;;;;;;18.09;64.28;98653.11;302632;114;2203035;-72
2021/05/02 04:47:22;;;;;;;9.70;4.83;;;;;;;18.13;64.13;98653.38;345333;113;1962019;-72
2021/05/02 04:48:28;;;;;;;9.20;5.07;;;;;;;18.18;64.00;98659.64;356047;113;1963930;-73
2021/05/02 04:49:33;;;;;;;9.78;5.39;;;;;;;18.18;63.94;98659.64;353451;113;1961973;-72
2021/05/02 04:50:39;;;;;;;10.64;5.88;;;;;;;18.20;63.85;98654.69;358100;113;1961866;-73
2021/05/02 04:51:44;;;;;;;9.32;5.16;;;;;;;18.27;63.66;98661.78;356744;113;1963914;-73
2021/05/02 04:52:51;;;;;;;9.54;4.78;;;;;;;18.28;63.55;98664.22;364607;110;1961931;-72
2021/05/02 04:53:56;;;;;;;8.83;4.99;;;;;;;18.33;63.45;98674.32;363096;110;1960854;-73
2021/05/02 04:55:01;;;;;;;9.28;5.29;;;;;;;18.38;63.17;98668.83;351332;112;2945996;-72
2021/05/02 04:56:07;;;;;;;9.22;5.26;;;;;;;18.38;62.99;98671.56;361914;110;1961973;-72
2021/05/02 04:57:13;;;;;;;9.22;4.88;;;;;;;18.40;62.94;98683.05;319341;110;2736981;-72
2021/05/02 04:58:19;;;;;;;8.33;4.93;;;;;;;18.42;62.84;98675.38;362068;112;1962055;-73
2021/05/02 04:59:24;;;;;;;10.73;4.85;;;;;;;18.44;62.68;98675.89;362157;110;1962013;-72
2021/05/02 05:00:37;;;;;;;7.83;4.53;;;;;;;18.48;62.56;98666.05;357416;110;1961971;-73
2021/05/02 05:01:44;;;;;;;10.01;4.82;;;;;;;18.47;62.50;98664.42;332224;112;1960948;-74
2021/05/02 05:02:51;;;;;;;8.34;5.11;;;;;;;18.44;62.62;98671.27;361859;111;1961937;-73
2021/05/02 05:03:57;;;;;;;8.29;4.79;;;;;;;18.47;62.71;98669.89;359959;112;1961980;-73
2021/05/02 05:05:03;;;;;;;8.94;4.83;;;;;;;18.49;62.70;98664.12;359744;112;1962011;-72
2021/05/02 05:06:11;;;;;;;9.52;4.62;;;;;;;18.51;62.35;98668.20;357844;112;1962980;-74
2021/05/02 05:07:17;;;;;;;8.75;4.73;;;;;;;18.48;62.50;98667.97;356789;112;1962054;-72
2021/05/02 05:08:22;;;;;;;9.53;4.85;;;;;;;18.49;62.47;98664.93;348605;116;1961955;-73
2021/05/02 05:09:27;;;;;;;9.01;4.44;;;;;;;18.57;62.29;98666.26;349215;113;1961668;-73